< < Back
Terminal Aerodrome Forecast


Current Version              Previous Versions:   1  2  3  4  5  6  7  8  9  

Terminal Aerodrome Forecast

734
FTUS44 KMOB 271400 AAC
TAFMOB
TAF AMD
KMOB 271430Z 2715/2812 02013KT P6SM FEW012=

Latest METAR

947
SAUS80 KWBC 271700 CCA
MTRMOB
METAR KMOB 271656Z 02013G18KT 10SM BKN200 08/M02 A3039 RMK AO2 SLP292
T00781017


USA.gov is the U.S. government's official web portal to all federal, state and local government web resources and services.